createdAt,value
2023-01-05T00:00:16.933Z,1002.03
2023-01-05T00:01:17.014Z,1001.97
2023-01-05T00:02:23.777Z,1001.92
2023-01-05T00:03:16.952Z,1001.97
2023-01-05T00:04:16.863Z,1001.94
2023-01-05T00:05:17.850Z,1001.95
2023-01-05T00:06:16.816Z,1002.02
2023-01-05T00:07:16.791Z,1001.98
2023-01-05T00:08:16.899Z,1002.03
2023-01-05T00:09:16.798Z,1002.00
2023-01-05T00:10:16.833Z,1002.03
2023-01-05T00:11:17.782Z,1001.99
2023-01-05T00:12:16.778Z,1002.03
2023-01-05T00:13:16.767Z,1002.04
2023-01-05T00:14:16.781Z,1002.07
2023-01-05T00:15:16.756Z,1002.05
2023-01-05T00:16:16.822Z,1002.09
2023-01-05T00:17:17.768Z,1002.11
2023-01-05T00:18:16.764Z,1002.12
2023-01-05T00:19:16.735Z,1002.04
2023-01-05T00:20:24.453Z,1002.10
2023-01-05T00:22:20.719Z,1002.05
2023-01-05T00:23:20.677Z,1002.04
2023-01-05T00:25:24.723Z,1002.04
2023-01-05T00:26:24.651Z,1002.08
2023-01-05T00:28:28.684Z,1002.10
2023-01-05T00:29:28.639Z,1002.04
2023-01-05T00:31:21.608Z,1002.10
2023-01-05T00:32:21.561Z,1002.10
2023-01-05T00:34:25.598Z,1002.11
2023-01-05T00:35:25.594Z,1002.12
2023-01-05T00:36:25.564Z,1002.16
2023-01-05T00:37:25.570Z,1002.07
2023-01-05T00:38:25.550Z,1002.12
2023-01-05T00:39:25.556Z,1002.05
2023-01-05T00:40:25.547Z,1002.17
2023-01-05T00:41:25.555Z,1002.16
2023-01-05T00:42:25.527Z,1002.14
2023-01-05T00:43:25.521Z,1002.12
2023-01-05T00:44:25.511Z,1002.13
2023-01-05T00:45:25.510Z,1002.09
2023-01-05T00:46:25.542Z,1002.17
2023-01-05T00:47:25.496Z,1002.10
2023-01-05T00:48:25.497Z,1002.06
2023-01-05T00:49:25.507Z,1002.09
2023-01-05T00:50:25.508Z,1002.10
2023-01-05T00:51:25.481Z,1002.06
2023-01-05T00:52:25.472Z,1002.00
2023-01-05T00:53:25.469Z,1002.02
2023-01-05T00:54:25.469Z,1002.00
2023-01-05T00:55:25.465Z,1002.04
2023-01-05T00:56:25.465Z,1002.16
2023-01-05T00:57:25.451Z,1002.01
2023-01-05T00:58:25.446Z,1002.09
2023-01-05T00:59:25.442Z,1002.02
2023-01-05T01:00:25.436Z,1002.05
2023-01-05T01:01:25.588Z,1002.04
2023-01-05T01:02:25.579Z,1002.11
2023-01-05T01:03:25.485Z,1002.13
2023-01-05T01:04:25.417Z,1002.00
2023-01-05T01:05:25.425Z,1002.06
2023-01-05T01:06:25.407Z,1002.05
2023-01-05T01:07:25.400Z,1001.98
2023-01-05T01:08:25.409Z,1002.01
2023-01-05T01:09:25.384Z,1002.03
2023-01-05T01:10:25.408Z,1002.05
2023-01-05T01:11:25.430Z,1002.06
2023-01-05T01:12:25.434Z,1001.98
2023-01-05T01:13:25.372Z,1002.03
2023-01-05T01:14:25.404Z,1002.09
2023-01-05T01:15:25.367Z,1002.07
2023-01-05T01:16:25.415Z,1002.07
2023-01-05T01:17:25.349Z,1002.07
2023-01-05T01:18:25.342Z,1002.02
2023-01-05T01:19:25.350Z,1002.09
2023-01-05T01:20:25.336Z,1002.04
2023-01-05T01:21:25.365Z,1002.13
2023-01-05T01:22:25.324Z,1002.09
2023-01-05T01:23:25.346Z,1002.04
2023-01-05T01:24:25.318Z,1002.02
2023-01-05T01:25:25.310Z,1002.07
2023-01-05T01:26:25.291Z,1002.03
2023-01-05T01:27:25.291Z,1002.02
2023-01-05T01:28:25.285Z,1002.07
2023-01-05T01:29:25.282Z,1002.15
2023-01-05T01:30:25.390Z,1002.09
2023-01-05T01:31:25.279Z,1002.06
2023-01-05T01:32:25.269Z,1002.09
2023-01-05T01:33:25.266Z,1002.10
2023-01-05T01:34:25.263Z,1002.11
2023-01-05T01:35:25.254Z,1002.07
2023-01-05T01:36:25.248Z,1002.08
2023-01-05T01:37:25.263Z,1002.10
2023-01-05T01:38:25.236Z,1002.06
2023-01-05T01:39:25.239Z,1002.01
2023-01-05T01:40:25.231Z,1001.97
2023-01-05T01:41:25.221Z,1001.97
2023-01-05T01:42:25.232Z,1002.04
2023-01-05T01:43:25.233Z,1001.98
2023-01-05T01:44:25.218Z,1001.98
2023-01-05T01:45:25.210Z,1001.97
2023-01-05T01:46:25.278Z,1001.99
2023-01-05T01:47:25.213Z,1002.04
2023-01-05T01:48:25.197Z,1002.09
2023-01-05T01:49:25.179Z,1002.08
2023-01-05T01:50:25.197Z,1002.09
2023-01-05T01:51:25.194Z,1002.01
2023-01-05T01:52:25.173Z,1002.04
2023-01-05T01:53:25.170Z,1002.06
2023-01-05T01:54:25.159Z,1002.09
2023-01-05T01:55:25.152Z,1002.10
2023-01-05T01:56:25.140Z,1002.06
2023-01-05T01:57:25.139Z,1001.97
2023-01-05T01:58:25.131Z,1002.07
2023-01-05T01:59:25.141Z,1002.10
2023-01-05T02:00:25.136Z,1002.10
2023-01-05T02:01:25.222Z,1002.12
2023-01-05T02:02:25.236Z,1001.99
2023-01-05T02:03:25.128Z,1002.04
2023-01-05T02:04:25.153Z,1002.02
2023-01-05T02:05:25.108Z,1002.03
2023-01-05T02:06:25.085Z,1002.08
2023-01-05T02:07:25.117Z,1001.98
2023-01-05T02:08:25.091Z,1002.00
2023-01-05T02:09:25.095Z,1002.07
2023-01-05T02:10:25.124Z,1002.03
2023-01-05T02:11:25.080Z,1002.05
2023-01-05T02:12:25.094Z,1002.10
2023-01-05T02:13:31.265Z,1002.12
2023-01-05T02:14:25.050Z,1001.99
2023-01-05T02:15:25.058Z,1001.98
2023-01-05T02:16:25.156Z,1001.97
2023-01-05T02:17:25.049Z,1002.03
2023-01-05T02:18:25.047Z,1001.98
2023-01-05T02:19:25.031Z,1001.99
2023-01-05T02:20:25.058Z,1002.02
2023-01-05T02:21:25.085Z,1002.05
2023-01-05T02:22:25.013Z,1001.92
2023-01-05T02:23:25.029Z,1001.96
2023-01-05T02:24:24.995Z,1001.90
2023-01-05T02:25:24.996Z,1001.89
2023-01-05T02:26:25.003Z,1001.81
2023-01-05T02:27:25.003Z,1001.86
2023-01-05T02:28:25.018Z,1001.79
2023-01-05T02:29:24.991Z,1001.94
2023-01-05T02:30:25.094Z,1001.85
2023-01-05T02:31:25.013Z,1001.85
2023-01-05T02:32:24.965Z,1001.83
2023-01-05T02:33:24.988Z,1001.84
2023-01-05T02:34:24.963Z,1001.82
2023-01-05T02:35:24.955Z,1001.80
2023-01-05T02:36:28.367Z,1001.85
2023-01-05T02:37:24.942Z,1001.85
2023-01-05T02:38:24.970Z,1001.84
2023-01-05T02:39:24.923Z,1001.77
2023-01-05T02:40:24.921Z,1001.86
2023-01-05T02:41:24.915Z,1001.84
2023-01-05T02:42:24.924Z,1001.84
2023-01-05T02:43:24.924Z,1001.77
2023-01-05T02:44:24.911Z,1001.78
2023-01-05T02:45:24.941Z,1001.81
2023-01-05T02:46:24.934Z,1001.78
2023-01-05T02:47:24.898Z,1001.79
2023-01-05T02:48:24.875Z,1001.80
2023-01-05T02:49:24.879Z,1001.80
2023-01-05T02:50:24.880Z,1001.78
2023-01-05T02:51:24.918Z,1001.77
2023-01-05T02:52:24.876Z,1001.86
2023-01-05T02:53:24.902Z,1001.82
2023-01-05T02:54:24.847Z,1001.76
2023-01-05T02:55:24.857Z,1001.81
2023-01-05T02:56:24.838Z,1001.94
2023-01-05T02:57:24.835Z,1001.82
2023-01-05T02:58:24.836Z,1001.77
2023-01-05T02:59:24.836Z,1001.82
2023-01-05T03:00:24.830Z,1001.83
2023-01-05T03:01:24.968Z,1001.89
2023-01-05T03:02:25.018Z,1001.85
2023-01-05T03:03:24.980Z,1001.89
2023-01-05T03:04:24.815Z,1001.92
2023-01-05T03:05:24.801Z,1001.81
2023-01-05T03:06:24.785Z,1001.92
2023-01-05T03:07:24.788Z,1001.96
2023-01-05T03:08:32.094Z,1001.85
2023-01-05T03:09:24.780Z,1001.94
2023-01-05T03:10:24.811Z,1001.83
2023-01-05T03:11:24.773Z,1001.91
2023-01-05T03:12:24.755Z,1001.85
2023-01-05T03:13:24.756Z,1001.87
2023-01-05T03:14:24.782Z,1001.85
2023-01-05T03:15:24.745Z,1001.93
2023-01-05T03:16:24.790Z,1001.90
2023-01-05T03:17:24.750Z,1001.91
2023-01-05T03:18:24.746Z,1001.91
2023-01-05T03:19:24.748Z,1001.91
2023-01-05T03:20:24.788Z,1001.90
2023-01-05T03:21:24.739Z,1001.84
2023-01-05T03:22:24.707Z,1001.98
2023-01-05T03:23:24.705Z,1001.93
2023-01-05T03:24:24.705Z,1001.99
2023-01-05T03:25:24.690Z,1001.93
2023-01-05T03:26:24.701Z,1002.05
2023-01-05T03:27:24.708Z,1001.89
2023-01-05T03:28:24.715Z,1001.99
2023-01-05T03:29:24.680Z,1001.98
2023-01-05T03:30:24.683Z,1001.93
2023-01-05T03:31:24.747Z,1001.78
2023-01-05T03:32:24.658Z,1001.97
2023-01-05T03:33:24.677Z,1001.86
2023-01-05T03:34:24.651Z,1001.93
2023-01-05T03:35:24.672Z,1001.90
2023-01-05T03:36:24.654Z,1002.04
2023-01-05T03:37:24.635Z,1001.87
2023-01-05T03:38:24.628Z,1001.94
2023-01-05T03:39:24.622Z,1001.92
2023-01-05T03:40:24.614Z,1001.89
2023-01-05T03:41:24.624Z,1001.94
2023-01-05T03:42:24.614Z,1001.95
2023-01-05T03:43:24.619Z,1002.00
2023-01-05T03:44:24.601Z,1001.95
2023-01-05T03:45:24.600Z,1001.94
2023-01-05T03:46:24.623Z,1001.90
2023-01-05T03:47:24.576Z,1001.91
2023-01-05T03:48:24.572Z,1001.76
2023-01-05T03:49:24.581Z,1001.82
2023-01-05T03:50:24.581Z,1001.83
2023-01-05T03:51:24.571Z,1001.85
2023-01-05T03:52:24.623Z,1001.86
2023-01-05T03:53:24.571Z,1001.93
2023-01-05T03:54:24.547Z,1001.88
2023-01-05T03:55:24.557Z,1002.02
2023-01-05T03:56:24.542Z,1001.94
2023-01-05T03:57:24.541Z,1002.00
2023-01-05T03:58:24.539Z,1001.95
2023-01-05T03:59:24.520Z,1001.95
2023-01-05T04:00:24.521Z,1001.97
2023-01-05T04:01:24.618Z,1001.98
2023-01-05T04:02:24.801Z,1001.92
2023-01-05T04:03:31.134Z,1001.95
2023-01-05T04:04:24.493Z,1002.03
2023-01-05T04:05:24.483Z,1001.88
2023-01-05T04:06:24.488Z,1002.03
2023-01-05T04:07:24.481Z,1001.99
2023-01-05T04:08:24.501Z,1002.02
2023-01-05T04:09:24.477Z,1002.03
2023-01-05T04:10:24.491Z,1002.07
2023-01-05T04:11:24.493Z,1002.04
2023-01-05T04:12:24.482Z,1002.01
2023-01-05T04:13:24.441Z,1002.04
2023-01-05T04:14:24.438Z,1002.12
2023-01-05T04:15:24.443Z,1002.15
2023-01-05T04:16:24.519Z,1002.10
2023-01-05T04:17:24.443Z,1002.04
2023-01-05T04:18:24.511Z,1002.15
2023-01-05T04:19:24.415Z,1002.13
2023-01-05T04:20:24.412Z,1002.19
2023-01-05T04:21:24.404Z,1002.13
2023-01-05T04:22:27.377Z,1002.17
2023-01-05T04:23:24.397Z,1002.23
2023-01-05T04:24:24.399Z,1002.21
2023-01-05T04:25:24.400Z,1002.23
2023-01-05T04:26:24.401Z,1002.17
2023-01-05T04:27:24.388Z,1002.22
2023-01-05T04:28:24.371Z,1002.16
2023-01-05T04:29:24.366Z,1002.18
2023-01-05T04:30:24.368Z,1002.20
2023-01-05T04:31:24.393Z,1002.24
2023-01-05T04:32:24.349Z,1002.29
2023-01-05T04:33:24.357Z,1002.27
2023-01-05T04:34:24.346Z,1002.25
2023-01-05T04:35:24.341Z,1002.33
2023-01-05T04:36:24.331Z,1002.35
2023-01-05T04:37:24.355Z,1002.31
2023-01-05T04:38:24.319Z,1002.42
2023-01-05T04:39:24.323Z,1002.32
2023-01-05T04:40:24.320Z,1002.42
2023-01-05T04:41:24.317Z,1002.38
2023-01-05T04:42:24.318Z,1002.48
2023-01-05T04:43:24.297Z,1002.43
2023-01-05T04:44:24.308Z,1002.43
2023-01-05T04:45:24.306Z,1002.48
2023-01-05T04:46:24.329Z,1002.42
2023-01-05T04:47:24.277Z,1002.42
2023-01-05T04:48:24.300Z,1002.41
2023-01-05T04:49:24.266Z,1002.44
2023-01-05T04:50:24.264Z,1002.48
2023-01-05T04:51:24.276Z,1002.50
2023-01-05T04:52:24.252Z,1002.51
2023-01-05T04:53:24.254Z,1002.57
2023-01-05T04:54:24.255Z,1002.66
2023-01-05T04:55:24.242Z,1002.67
2023-01-05T04:56:24.235Z,1002.64
2023-01-05T04:57:24.220Z,1002.71
2023-01-05T04:58:24.234Z,1002.68
2023-01-05T04:59:24.223Z,1002.69
2023-01-05T05:00:24.220Z,1002.74
2023-01-05T05:01:24.361Z,1002.70
2023-01-05T05:02:24.385Z,1002.70
2023-01-05T05:03:26.881Z,1002.69
2023-01-05T05:04:24.208Z,1002.64
2023-01-05T05:05:24.239Z,1002.69
2023-01-05T05:06:24.303Z,1002.66
2023-01-05T05:07:24.188Z,1002.71
2023-01-05T05:08:24.175Z,1002.68
2023-01-05T05:09:24.164Z,1002.67
2023-01-05T05:10:24.209Z,1002.67
2023-01-05T05:11:24.163Z,1002.71
2023-01-05T05:12:24.157Z,1002.66
2023-01-05T05:13:24.153Z,1002.64
2023-01-05T05:14:24.148Z,1002.67
2023-01-05T05:15:24.141Z,1002.71
2023-01-05T05:16:24.154Z,1002.65
2023-01-05T05:17:24.137Z,1002.77
2023-01-05T05:18:24.126Z,1002.73
2023-01-05T05:19:24.138Z,1002.75
2023-01-05T05:20:24.137Z,1002.69
2023-01-05T05:21:24.133Z,1002.79
2023-01-05T05:22:24.110Z,1002.80
2023-01-05T05:23:24.093Z,1002.79
2023-01-05T05:24:24.088Z,1002.80
2023-01-05T05:25:24.088Z,1002.76
2023-01-05T05:26:24.094Z,1002.83
2023-01-05T05:27:24.081Z,1002.90
2023-01-05T05:28:24.089Z,1002.86
2023-01-05T05:29:24.085Z,1002.82
2023-01-05T05:30:24.082Z,1002.88
2023-01-05T05:31:24.193Z,1002.78
2023-01-05T05:32:24.062Z,1002.80
2023-01-05T05:33:24.050Z,1002.75
2023-01-05T05:34:24.064Z,1002.80
2023-01-05T05:35:24.059Z,1002.78
2023-01-05T05:36:24.055Z,1002.71
2023-01-05T05:37:24.019Z,1002.79
2023-01-05T05:38:24.045Z,1002.76
2023-01-05T05:39:24.012Z,1002.71
2023-01-05T05:40:24.011Z,1002.86
2023-01-05T05:41:24.056Z,1002.81
2023-01-05T05:42:24.013Z,1002.83
2023-01-05T05:43:23.991Z,1002.80
2023-01-05T05:44:24.000Z,1002.78
2023-01-05T05:45:23.998Z,1002.78
2023-01-05T05:46:24.130Z,1002.70
2023-01-05T05:47:23.972Z,1002.72
2023-01-05T05:48:23.972Z,1002.76
2023-01-05T05:49:23.963Z,1002.60
2023-01-05T05:50:24.071Z,1002.66
2023-01-05T05:51:23.970Z,1002.71
2023-01-05T05:52:23.955Z,1002.64
2023-01-05T05:53:23.963Z,1002.68
2023-01-05T05:54:23.963Z,1002.76
2023-01-05T05:55:23.948Z,1002.79
2023-01-05T05:56:23.961Z,1002.80
2023-01-05T05:57:23.931Z,1002.81
2023-01-05T05:58:23.925Z,1002.82
2023-01-05T05:59:23.915Z,1002.82
2023-01-05T06:00:23.922Z,1002.84
2023-01-05T06:01:23.959Z,1002.90
2023-01-05T06:02:23.961Z,1002.93
2023-01-05T06:03:23.925Z,1002.95
2023-01-05T06:04:23.928Z,1003.00
2023-01-05T06:05:23.889Z,1003.04
2023-01-05T06:06:23.869Z,1002.95
2023-01-05T06:07:23.876Z,1003.06
2023-01-05T06:08:23.879Z,1003.12
2023-01-05T06:09:23.860Z,1003.04
2023-01-05T06:10:23.934Z,1003.15
2023-01-05T06:11:23.900Z,1003.06
2023-01-05T06:12:23.839Z,1003.13
2023-01-05T06:13:23.844Z,1003.15
2023-01-05T06:14:23.843Z,1003.09
2023-01-05T06:15:23.846Z,1003.17
2023-01-05T06:16:23.867Z,1003.23
2023-01-05T06:17:23.807Z,1003.28
2023-01-05T06:18:23.819Z,1003.34
2023-01-05T06:19:23.820Z,1003.34
2023-01-05T06:20:31.071Z,1003.44
2023-01-05T06:22:27.792Z,1003.35
2023-01-05T06:23:27.767Z,1003.34
2023-01-05T06:25:31.805Z,1003.33
2023-01-05T06:26:31.765Z,1003.36
2023-01-05T06:28:24.890Z,1003.44
2023-01-05T06:29:24.859Z,1003.32
2023-01-05T06:31:17.850Z,1003.21
2023-01-05T06:32:17.785Z,1003.23
2023-01-05T06:34:21.811Z,1003.16
2023-01-05T06:35:21.797Z,1003.32
2023-01-05T06:36:21.781Z,1003.27
2023-01-05T06:37:21.774Z,1003.38
2023-01-05T06:38:21.801Z,1003.31
2023-01-05T06:39:21.761Z,1003.28
2023-01-05T06:40:21.757Z,1003.35
2023-01-05T06:41:21.768Z,1003.43
2023-01-05T06:42:23.542Z,1003.42
2023-01-05T06:43:21.743Z,1003.46
2023-01-05T06:44:21.740Z,1003.45
2023-01-05T06:45:21.731Z,1003.52
2023-01-05T06:46:21.767Z,1003.49
2023-01-05T06:47:21.727Z,1003.44
2023-01-05T06:48:21.712Z,1003.58
2023-01-05T06:49:21.814Z,1003.60
2023-01-05T06:50:21.734Z,1003.63
2023-01-05T06:51:21.729Z,1003.60
2023-01-05T06:52:21.703Z,1003.63
2023-01-05T06:53:21.709Z,1003.58
2023-01-05T06:54:21.682Z,1003.57
2023-01-05T06:55:21.686Z,1003.63
2023-01-05T06:56:21.678Z,1003.62
2023-01-05T06:57:21.679Z,1003.69
2023-01-05T06:58:21.675Z,1003.70
2023-01-05T06:59:21.695Z,1003.73
2023-01-05T07:00:21.650Z,1003.75
2023-01-05T07:01:21.713Z,1003.70
2023-01-05T07:02:21.741Z,1003.73
2023-01-05T07:03:21.640Z,1003.71
2023-01-05T07:04:21.684Z,1003.76
2023-01-05T07:05:21.634Z,1003.79
2023-01-05T07:06:21.634Z,1003.64
2023-01-05T07:07:21.621Z,1003.70
2023-01-05T07:08:21.626Z,1003.82
2023-01-05T07:09:21.611Z,1003.77
2023-01-05T07:10:21.605Z,1003.82
2023-01-05T07:11:21.618Z,1003.82
2023-01-05T07:12:21.595Z,1003.71
2023-01-05T07:13:21.602Z,1003.74
2023-01-05T07:14:21.594Z,1003.82
2023-01-05T07:15:21.580Z,1003.83
2023-01-05T07:16:21.601Z,1003.75
2023-01-05T07:17:21.565Z,1003.76
2023-01-05T07:18:21.583Z,1003.81
2023-01-05T07:19:21.570Z,1003.85
2023-01-05T07:20:21.549Z,1003.86
2023-01-05T07:21:21.545Z,1003.80
2023-01-05T07:22:21.540Z,1003.81
2023-01-05T07:23:21.531Z,1003.88
2023-01-05T07:24:21.538Z,1003.92
2023-01-05T07:25:21.521Z,1003.94
2023-01-05T07:26:21.533Z,1003.95
2023-01-05T07:27:21.511Z,1003.97
2023-01-05T07:28:21.506Z,1003.96
2023-01-05T07:29:21.501Z,1003.84
2023-01-05T07:30:21.503Z,1003.92
2023-01-05T07:31:21.519Z,1003.97
2023-01-05T07:32:21.488Z,1003.96
2023-01-05T07:33:21.483Z,1003.90
2023-01-05T07:34:21.476Z,1003.96
2023-01-05T07:35:21.490Z,1004.00
2023-01-05T07:36:21.466Z,1004.00
2023-01-05T07:37:21.466Z,1004.04
2023-01-05T07:38:21.463Z,1003.97
2023-01-05T07:39:21.448Z,1003.97
2023-01-05T07:40:21.458Z,1004.01
2023-01-05T07:41:21.438Z,1004.07
2023-01-05T07:42:21.458Z,1004.08
2023-01-05T07:43:21.444Z,1004.06
2023-01-05T07:44:21.420Z,1004.09
2023-01-05T07:45:21.467Z,1004.18
2023-01-05T07:46:21.528Z,1004.13
2023-01-05T07:47:21.409Z,1004.16
2023-01-05T07:48:23.639Z,1004.10
2023-01-05T07:49:21.414Z,1004.21
2023-01-05T07:50:21.395Z,1004.28
2023-01-05T07:51:21.385Z,1004.14
2023-01-05T07:52:21.377Z,1004.23
2023-01-05T07:53:21.389Z,1004.30
2023-01-05T07:54:21.372Z,1004.21
2023-01-05T07:55:21.376Z,1004.32
2023-01-05T07:56:21.368Z,1004.36
2023-01-05T07:57:21.352Z,1004.34
2023-01-05T07:58:21.367Z,1004.38
2023-01-05T07:59:21.346Z,1004.36
2023-01-05T08:00:21.353Z,1004.36
2023-01-05T08:01:21.465Z,1004.44
2023-01-05T08:02:21.511Z,1004.48
2023-01-05T08:03:21.354Z,1004.41
2023-01-05T08:04:21.386Z,1004.49
2023-01-05T08:05:21.313Z,1004.42
2023-01-05T08:06:21.316Z,1004.47
2023-01-05T08:07:21.303Z,1004.46
2023-01-05T08:08:24.545Z,1004.52
2023-01-05T08:09:21.297Z,1004.52
2023-01-05T08:10:21.286Z,1004.58
2023-01-05T08:11:21.305Z,1004.55
2023-01-05T08:12:21.273Z,1004.59
2023-01-05T08:13:21.279Z,1004.66
2023-01-05T08:14:21.293Z,1004.75
2023-01-05T08:15:21.259Z,1004.62
2023-01-05T08:16:21.310Z,1004.73
2023-01-05T08:17:21.279Z,1004.74
2023-01-05T08:18:21.246Z,1004.75
2023-01-05T08:19:21.267Z,1004.87
2023-01-05T08:20:21.265Z,1004.83
2023-01-05T08:21:21.228Z,1004.80
2023-01-05T08:22:21.233Z,1004.80
2023-01-05T08:23:25.721Z,1004.84
2023-01-05T08:24:21.227Z,1004.83
2023-01-05T08:25:21.232Z,1004.83
2023-01-05T08:26:21.209Z,1004.86
2023-01-05T08:27:21.269Z,1004.83
2023-01-05T08:28:21.198Z,1004.84
2023-01-05T08:29:21.195Z,1004.84
2023-01-05T08:30:21.185Z,1004.84
2023-01-05T08:31:21.224Z,1004.94
2023-01-05T08:32:21.171Z,1004.90
2023-01-05T08:33:21.176Z,1004.91
2023-01-05T08:34:21.167Z,1004.85
2023-01-05T08:35:21.175Z,1004.84
2023-01-05T08:36:21.164Z,1004.94
2023-01-05T08:37:21.152Z,1004.97
2023-01-05T08:38:21.147Z,1004.99
2023-01-05T08:39:21.158Z,1004.99
2023-01-05T08:40:21.136Z,1005.02
2023-01-05T08:41:21.139Z,1005.06
2023-01-05T08:42:21.132Z,1004.97
2023-01-05T08:43:21.137Z,1005.01
2023-01-05T08:44:21.125Z,1004.95
2023-01-05T08:45:21.112Z,1005.04
2023-01-05T08:46:21.154Z,1004.97
2023-01-05T08:47:26.481Z,1004.98
2023-01-05T08:48:21.118Z,1004.91
2023-01-05T08:49:21.105Z,1004.89
2023-01-05T08:50:21.097Z,1005.01
2023-01-05T08:51:21.125Z,1005.16
2023-01-05T08:52:21.111Z,1005.04
2023-01-05T08:53:21.092Z,1005.15
2023-01-05T08:54:21.085Z,1005.03
2023-01-05T08:55:21.065Z,1005.17
2023-01-05T08:56:21.060Z,1005.11
2023-01-05T08:57:21.053Z,1005.17
2023-01-05T08:58:21.049Z,1005.16
2023-01-05T08:59:21.050Z,1005.09
2023-01-05T09:00:21.039Z,1005.03
2023-01-05T09:01:21.228Z,1005.08
2023-01-05T09:02:25.497Z,1005.12
2023-01-05T09:03:21.091Z,1005.26
2023-01-05T09:04:21.018Z,1005.18
2023-01-05T09:05:21.035Z,1005.27
2023-01-05T09:06:21.021Z,1005.23
2023-01-05T09:07:21.029Z,1005.27
2023-01-05T09:08:21.031Z,1005.21
2023-01-05T09:09:21.001Z,1005.19
2023-01-05T09:10:21.053Z,1005.16
2023-01-05T09:11:20.996Z,1005.36
2023-01-05T09:12:20.998Z,1005.29
2023-01-05T09:13:21.009Z,1005.38
2023-01-05T09:14:20.990Z,1005.34
2023-01-05T09:15:20.978Z,1005.44
2023-01-05T09:17:20.991Z,1005.44
2023-01-05T09:18:20.971Z,1005.49
2023-01-05T09:19:21.002Z,1005.53
2023-01-05T09:20:20.970Z,1005.57
2023-01-05T09:21:20.964Z,1005.57
2023-01-05T09:22:20.959Z,1005.53
2023-01-05T09:23:20.972Z,1005.61
2023-01-05T09:24:20.954Z,1005.61
2023-01-05T09:25:20.954Z,1005.60
2023-01-05T09:26:20.953Z,1005.73
2023-01-05T09:27:20.948Z,1005.65
2023-01-05T09:28:20.967Z,1005.59
2023-01-05T09:29:20.960Z,1005.66
2023-01-05T09:30:20.966Z,1005.71
2023-01-05T09:31:20.996Z,1005.71
2023-01-05T09:32:20.938Z,1005.81
2023-01-05T09:33:20.944Z,1005.81
2023-01-05T09:34:20.936Z,1005.80
2023-01-05T09:35:20.935Z,1005.87
2023-01-05T09:36:20.935Z,1005.98
2023-01-05T09:37:21.065Z,1005.89
2023-01-05T09:38:20.939Z,1005.84
2023-01-05T09:39:20.933Z,1005.88
2023-01-05T09:40:21.003Z,1005.90
2023-01-05T09:41:20.945Z,1005.88
2023-01-05T09:42:20.940Z,1006.02
2023-01-05T09:43:20.947Z,1005.78
2023-01-05T09:44:20.930Z,1005.99
2023-01-05T09:45:20.909Z,1005.98
2023-01-05T09:46:21.045Z,1006.03
2023-01-05T09:47:20.948Z,1006.04
2023-01-05T09:48:20.913Z,1006.08
2023-01-05T09:49:20.913Z,1006.09
2023-01-05T09:50:21.028Z,1006.05
2023-01-05T09:51:20.904Z,1006.04
2023-01-05T09:52:20.905Z,1006.13
2023-01-05T09:53:20.995Z,1006.14
2023-01-05T09:54:20.904Z,1006.20
2023-01-05T09:55:20.943Z,1006.18
2023-01-05T09:56:50.373Z,1006.20
2023-01-05T09:57:20.893Z,1006.24
2023-01-05T09:58:24.895Z,1006.13
2023-01-05T09:59:20.956Z,1006.08
2023-01-05T10:00:20.927Z,1006.19
2023-01-05T10:01:20.990Z,1006.22
2023-01-05T10:02:20.886Z,1006.24
2023-01-05T10:03:53.202Z,1006.22
2023-01-05T10:04:25.254Z,1006.19
2023-01-05T10:05:21.045Z,1006.20
2023-01-05T10:06:20.877Z,1006.32
2023-01-05T10:07:20.863Z,1006.24
2023-01-05T10:08:20.918Z,1006.27
2023-01-05T10:09:20.960Z,1006.28
2023-01-05T10:10:24.868Z,1006.20
2023-01-05T10:11:20.870Z,1006.30
2023-01-05T10:12:20.866Z,1006.30
2023-01-05T10:13:20.851Z,1006.36
2023-01-05T10:14:20.850Z,1006.32
2023-01-05T10:15:20.882Z,1006.27
2023-01-05T10:16:26.112Z,1006.33
2023-01-05T10:17:45.142Z,1006.28
2023-01-05T10:18:20.866Z,1006.32
2023-01-05T10:19:20.822Z,1006.36
2023-01-05T10:20:20.823Z,1006.32
2023-01-05T10:21:20.815Z,1006.42
2023-01-05T10:22:20.826Z,1006.31
2023-01-05T10:23:20.807Z,1006.33
2023-01-05T10:24:20.812Z,1006.48
2023-01-05T10:25:20.917Z,1006.34
2023-01-05T10:26:20.807Z,1006.41
2023-01-05T10:27:25.670Z,1006.35
2023-01-05T10:28:20.809Z,1006.32
2023-01-05T10:29:20.789Z,1006.36
2023-01-05T10:30:20.811Z,1006.32
2023-01-05T10:31:20.817Z,1006.31
2023-01-05T10:32:20.774Z,1006.42
2023-01-05T10:33:39.004Z,1006.52
2023-01-05T10:34:20.821Z,1006.43
2023-01-05T10:35:58.961Z,1006.52
2023-01-05T10:36:48.863Z,1006.50
2023-01-05T10:37:20.788Z,1006.41
2023-01-05T10:38:20.782Z,1006.48
2023-01-05T10:39:20.778Z,1006.59
2023-01-05T10:40:20.795Z,1006.51
2023-01-05T10:41:20.834Z,1006.59
2023-01-05T10:42:20.742Z,1006.43
2023-01-05T10:43:20.736Z,1006.45
2023-01-05T10:44:20.732Z,1006.43
2023-01-05T10:45:20.745Z,1006.38
2023-01-05T10:46:41.940Z,1006.38
2023-01-05T10:47:20.797Z,1006.43
2023-01-05T10:48:20.715Z,1006.48
2023-01-05T10:49:20.704Z,1006.53
2023-01-05T10:50:20.698Z,1006.43
2023-01-05T10:51:20.733Z,1006.37
2023-01-05T10:52:20.725Z,1006.37
2023-01-05T10:53:20.682Z,1006.41
2023-01-05T10:54:20.730Z,1006.45
2023-01-05T10:55:20.710Z,1006.46
2023-01-05T10:56:20.677Z,1006.49
2023-01-05T10:57:20.763Z,1006.48
2023-01-05T10:58:20.663Z,1006.42
2023-01-05T10:59:20.715Z,1006.48
2023-01-05T11:00:20.655Z,1006.47
2023-01-05T11:01:20.952Z,1006.46
2023-01-05T11:02:20.784Z,1006.48
2023-01-05T11:03:28.867Z,1006.39
2023-01-05T11:04:35.009Z,1006.49
2023-01-05T11:05:20.686Z,1006.44
2023-01-05T11:06:20.628Z,1006.45
2023-01-05T11:07:20.622Z,1006.49
2023-01-05T11:08:20.613Z,1006.51
2023-01-05T11:09:22.577Z,1006.46
2023-01-05T11:10:20.620Z,1006.53
2023-01-05T11:11:20.603Z,1006.52
2023-01-05T11:12:20.604Z,1006.60
2023-01-05T11:13:20.693Z,1006.47
2023-01-05T11:14:20.597Z,1006.54
2023-01-05T11:15:20.591Z,1006.50
2023-01-05T11:16:20.674Z,1006.49
2023-01-05T11:17:20.568Z,1006.68
2023-01-05T11:18:20.571Z,1006.64
2023-01-05T11:19:20.579Z,1006.59
2023-01-05T11:20:20.572Z,1006.61
2023-01-05T11:21:20.561Z,1006.65
2023-01-05T11:22:20.558Z,1006.67
2023-01-05T11:23:20.548Z,1006.70
2023-01-05T11:24:20.616Z,1006.64
2023-01-05T11:25:20.541Z,1006.76
2023-01-05T11:26:20.542Z,1006.68
2023-01-05T11:27:20.531Z,1006.80
2023-01-05T11:28:20.570Z,1006.77
2023-01-05T11:29:20.624Z,1006.83
2023-01-05T11:30:20.555Z,1006.77
2023-01-05T11:31:20.527Z,1006.77
2023-01-05T11:32:20.567Z,1006.83
2023-01-05T11:33:25.076Z,1006.84
2023-01-05T11:34:20.500Z,1006.92
2023-01-05T11:35:20.497Z,1006.87
2023-01-05T11:36:20.493Z,1006.81
2023-01-05T11:37:20.487Z,1006.86
2023-01-05T11:38:20.654Z,1006.81
2023-01-05T11:39:20.484Z,1007.00
2023-01-05T11:40:20.476Z,1006.94
2023-01-05T11:41:20.467Z,1006.94
2023-01-05T11:42:25.240Z,1007.02
2023-01-05T11:43:20.458Z,1007.02
2023-01-05T11:44:20.447Z,1007.07
2023-01-05T11:45:20.572Z,1007.06
2023-01-05T11:46:20.504Z,1007.05
2023-01-05T11:47:20.437Z,1007.06
2023-01-05T11:48:20.434Z,1007.04
2023-01-05T11:49:20.520Z,1007.12
2023-01-05T11:50:20.425Z,1007.10
2023-01-05T11:51:25.896Z,1007.18
2023-01-05T11:52:20.410Z,1007.24
2023-01-05T11:53:20.439Z,1007.31
2023-01-05T11:54:20.407Z,1007.22
2023-01-05T11:55:20.398Z,1007.24
2023-01-05T11:56:20.410Z,1007.26
2023-01-05T11:57:20.418Z,1007.22
2023-01-05T11:58:20.382Z,1007.28
2023-01-05T11:59:20.378Z,1007.25
2023-01-05T12:00:20.435Z,1007.35
2023-01-05T12:01:20.548Z,1007.43
2023-01-05T12:02:20.389Z,1007.32
2023-01-05T12:03:20.386Z,1007.34
2023-01-05T12:04:20.428Z,1007.35
2023-01-05T12:05:20.362Z,1007.40
2023-01-05T12:06:20.348Z,1007.40
2023-01-05T12:07:20.337Z,1007.42
2023-01-05T12:08:20.344Z,1007.54
2023-01-05T12:09:20.389Z,1007.54
2023-01-05T12:10:20.326Z,1007.52
2023-01-05T12:11:20.322Z,1007.56
2023-01-05T12:12:20.327Z,1007.62
2023-01-05T12:13:20.311Z,1007.66
2023-01-05T12:14:20.300Z,1007.72
2023-01-05T12:15:20.299Z,1007.68
2023-01-05T12:16:20.335Z,1007.72